Time;durP1;ratioP1;P1;durP2;ratioP2;P2;SDS_P1;SDS_P2;PMS_P1;PMS_P2;Temp;Humidity;BMP_temperature;BMP_pressure;BME280_temperature;BME280_humidity;BME280_pressure;Samples;Min_cycle;Max_cycle;Signal;HPM_P1;HPM_P2
2022/12/18 00:01:34;;;;;;;5.93;3.27;;;-10.50;99.90;;;;;;4997573;28;20519;-79
2022/12/18 00:04:01;;;;;;;4.93;3.03;;;-10.50;99.90;;;;;;5014110;28;20406;-79
2022/12/18 00:06:29;;;;;;;6.37;3.50;;;-10.40;99.90;;;;;;4997173;28;20426;-79
2022/12/18 00:08:56;;;;;;;5.33;3.27;;;-10.40;99.90;;;;;;5014970;28;20421;-79
2022/12/18 00:11:25;;;;;;;5.70;3.37;;;-10.40;99.90;;;;;;5014486;28;20465;-79
2022/12/18 00:13:51;;;;;;;4.03;3.10;;;-10.40;99.90;;;;;;5014560;28;20470;-79
2022/12/18 00:16:22;;;;;;;5.53;3.07;;;-10.30;99.90;;;;;;4997215;28;20443;-79
2022/12/18 00:18:50;;;;;;;4.73;3.07;;;-10.30;99.90;;;;;;4997373;28;20845;-79
2022/12/18 00:21:16;;;;;;;5.97;3.40;;;-10.40;99.90;;;;;;5014636;28;20968;-79
2022/12/18 00:23:43;;;;;;;4.37;2.37;;;-10.30;99.90;;;;;;5014566;28;20472;-79
2022/12/18 00:26:15;;;;;;;3.57;2.73;;;-10.50;99.90;;;;;;4996692;28;20423;-78
2022/12/18 00:28:42;;;;;;;3.27;2.27;;;-10.60;99.90;;;;;;5014404;28;20423;-79
2022/12/18 00:31:10;;;;;;;3.50;2.53;;;-10.60;99.90;;;;;;4996958;28;20465;-79
2022/12/18 00:33:37;;;;;;;4.07;2.47;;;-10.60;99.90;;;;;;5014321;28;20457;-79
2022/12/18 00:36:10;;;;;;;5.00;2.50;;;-10.70;99.90;;;;;;4997313;28;20508;-79
2022/12/18 00:38:36;;;;;;;5.07;2.77;;;-10.70;99.90;;;;;;5015236;28;20505;-79
2022/12/18 00:41:02;;;;;;;5.63;3.13;;;-10.50;99.90;;;;;;5014725;28;20514;-79
2022/12/18 00:43:28;;;;;;;6.87;3.63;;;-10.60;99.90;;;;;;4997074;28;20521;-79
2022/12/18 00:45:53;;;;;;;5.33;3.77;;;-10.70;99.90;;;;;;5014424;28;20191;-79
2022/12/18 00:48:19;;;;;;;6.87;3.67;;;-10.90;99.90;;;;;;4997236;28;20190;-79
2022/12/18 00:50:44;;;;;;;5.20;3.13;;;-10.80;99.90;;;;;;4996661;28;20186;-79
2022/12/18 00:53:10;;;;;;;4.27;2.67;;;-10.80;99.90;;;;;;4995705;28;20234;-79
2022/12/18 00:55:39;;;;;;;7.03;3.13;;;-10.80;99.90;;;;;;5014183;28;20180;-78
2022/12/18 00:58:04;;;;;;;4.37;2.67;;;-10.90;99.90;;;;;;4996679;28;20229;-79
2022/12/18 01:00:30;;;;;;;6.43;3.33;;;-10.80;99.90;;;;;;5014044;28;20410;-79
2022/12/18 01:02:55;;;;;;;7.00;3.70;;;-10.80;99.90;;;;;;5014326;28;20416;-78
2022/12/18 01:05:21;;;;;;;5.70;3.20;;;-10.80;99.90;;;;;;4996461;28;20184;-79
2022/12/18 01:07:47;;;;;;;7.20;3.90;;;-10.70;99.90;;;;;;4996419;28;20190;-79
2022/12/18 01:10:12;;;;;;;7.17;3.23;;;-10.70;99.90;;;;;;4996439;28;20179;-79
2022/12/18 01:12:38;;;;;;;3.87;3.30;;;-10.80;99.90;;;;;;5071703;22;20221;-81
2022/12/18 01:15:06;;;;;;;5.67;3.00;;;-10.90;99.90;;;;;;5046996;28;20221;-81
2022/12/18 01:17:32;;;;;;;6.33;3.27;;;-11.00;99.90;;;;;;5064334;28;20174;-81
2022/12/18 01:19:57;;;;;;;5.13;3.23;;;-11.10;99.90;;;;;;5045774;28;20487;-81
2022/12/18 01:22:23;;;;;;;7.10;3.40;;;-11.10;99.90;;;;;;5060217;28;20198;-81
2022/12/18 01:24:49;;;;;;;6.03;3.47;;;-11.10;99.90;;;;;;5053007;28;20185;-81
2022/12/18 01:27:14;;;;;;;6.77;3.87;;;-11.10;99.90;;;;;;5071953;28;20203;-80
2022/12/18 01:29:40;;;;;;;8.80;4.30;;;-11.00;99.90;;;;;;5054680;28;20176;-81
2022/12/18 01:32:06;;;;;;;5.97;3.53;;;-11.00;99.90;;;;;;5045329;28;20578;-81
2022/12/18 01:34:32;;;;;;;6.00;3.50;;;-11.00;99.90;;;;;;5045612;28;20180;-81
2022/12/18 01:36:57;;;;;;;4.83;3.30;;;-11.10;99.90;;;;;;5064081;28;20169;-82
2022/12/18 01:39:23;;;;;;;4.90;3.23;;;-11.10;99.90;;;;;;5055799;28;20184;-81
2022/12/18 01:42:01;;;;;;;3.77;2.80;;;-11.10;99.90;;;;;;5061869;28;20276;-81
2022/12/18 01:44:45;;;;;;;4.70;3.40;;;-11.10;99.90;;;;;;5070347;28;20169;-81
2022/12/18 01:47:38;;;;;;;4.30;2.83;;;-11.20;99.90;;;;;;5087633;28;20399;-81
2022/12/18 01:50:12;;;;;;;4.90;3.13;;;-11.20;99.90;;;;;;5057439;28;20412;-81
2022/12/18 01:52:40;;;;;;;4.83;2.80;;;-11.10;99.90;;;;;;5069730;28;20461;-80
2022/12/18 01:55:07;;;;;;;5.30;2.70;;;-11.00;99.90;;;;;;5087879;28;20416;-81
2022/12/18 01:57:33;;;;;;;4.90;2.97;;;-10.90;99.90;;;;;;5087913;28;20423;-81
2022/12/18 02:00:02;;;;;;;5.43;2.90;;;-11.00;99.90;;;;;;5069991;28;20454;-81
2022/12/18 02:02:30;;;;;;;3.90;2.60;;;-11.00;99.90;;;;;;5087219;28;20204;-80
2022/12/18 02:04:55;;;;;;;4.57;2.30;;;-11.00;99.90;;;;;;5087782;28;20428;-81
2022/12/18 02:07:30;;;;;;;5.67;2.23;;;-11.10;99.90;;;;;;5069764;28;20415;-82
2022/12/18 02:10:18;;;;;;;3.90;2.17;;;-11.00;99.90;;;;;;5069965;28;20173;-81
2022/12/18 02:13:05;;;;;;;4.33;2.77;;;-11.10;99.90;;;;;;5069239;28;20463;-81
2022/12/18 02:15:49;;;;;;;3.53;2.60;;;-11.20;99.90;;;;;;5068775;28;20419;-81
2022/12/18 02:18:22;;;;;;;4.20;2.10;;;-11.10;99.90;;;;;;5087257;28;20435;-82
2022/12/18 02:21:00;;;;;;;4.17;1.83;;;-11.00;99.90;;;;;;5069323;28;20422;-81
2022/12/18 02:24:12;;;;;;;3.47;2.23;;;-10.90;99.90;;;;;;5068657;28;20419;-81
2022/12/18 02:26:44;;;;;;;3.47;1.80;;;-10.90;99.90;;;;;;4986129;28;20424;-82
2022/12/18 02:29:15;;;;;;;4.50;2.77;;;-10.90;99.90;;;;;;5072444;28;20920;-81
2022/12/18 02:31:47;;;;;;;5.00;3.13;;;-10.80;99.90;;;;;;5067801;28;20960;-81
2022/12/18 02:34:14;;;;;;;8.70;2.67;;;-10.90;99.90;;;;;;5019620;28;20560;-81
2022/12/18 02:36:42;;;;;;;5.87;3.37;;;-11.00;99.90;;;;;;5020307;28;20441;-81
2022/12/18 02:39:10;;;;;;;5.20;2.97;;;-11.20;99.90;;;;;;5039621;28;20496;-80
2022/12/18 02:41:46;;;;;;;5.77;3.30;;;-11.30;99.90;;;;;;5022071;28;20490;-81
2022/12/18 02:44:13;;;;;;;4.67;3.33;;;-11.40;99.90;;;;;;5028724;28;20421;-81
2022/12/18 02:46:49;;;;;;;4.53;2.80;;;-11.40;99.90;;;;;;5029497;28;20427;-81
2022/12/18 02:49:30;;;;;;;5.20;2.33;;;-11.50;99.90;;;;;;5028122;28;20431;-81
2022/12/18 02:52:10;;;;;;;5.43;2.70;;;-11.50;99.90;;;;;;5029072;28;20468;-81
2022/12/18 02:54:57;;;;;;;3.10;2.47;;;-11.40;99.90;;;;;;5028590;28;20418;-80
2022/12/18 02:57:40;;;;;;;4.97;3.17;;;-11.30;99.90;;;;;;5028450;28;20443;-80
2022/12/18 03:00:09;;;;;;;4.00;2.47;;;-11.40;99.90;;;;;;5028771;28;20467;-81
2022/12/18 03:02:48;;;;;;;3.90;2.67;;;-11.40;99.90;;;;;;5046840;28;20433;-80
2022/12/18 03:05:19;;;;;;;7.23;3.00;;;-11.50;99.90;;;;;;5029084;28;20417;-81
2022/12/18 03:08:04;;;;;;;6.00;2.83;;;-11.60;99.90;;;;;;5046624;28;20417;-80
2022/12/18 03:10:34;;;;;;;3.53;2.57;;;-11.50;99.90;;;;;;5027190;28;20789;-81
2022/12/18 03:13:07;;;;;;;4.30;2.50;;;-11.50;99.90;;;;;;5025206;28;20554;-80
2022/12/18 03:15:47;;;;;;;4.20;2.47;;;-11.50;99.90;;;;;;5020276;28;20949;-81
2022/12/18 03:18:27;;;;;;;3.60;2.40;;;-11.50;99.90;;;;;;5023924;28;20421;-85
2022/12/18 03:20:56;;;;;;;4.77;2.00;;;-11.60;99.90;;;;;;5016954;28;20405;-83
2022/12/18 03:23:27;;;;;;;3.43;2.40;;;-11.70;99.90;;;;;;5020036;28;21001;-82
2022/12/18 03:25:58;;;;;;;3.73;2.43;;;-11.60;99.90;;;;;;5038528;28;20418;-82
2022/12/18 03:28:27;;;;;;;2.63;2.17;;;-11.60;99.90;;;;;;5038175;28;20524;-82
2022/12/18 03:30:58;;;;;;;3.47;2.00;;;-11.60;99.90;;;;;;5038141;28;20413;-83
2022/12/18 03:33:27;;;;;;;4.23;1.97;;;-11.60;99.90;;;;;;5037517;28;20877;-82
2022/12/18 03:35:52;;;;;;;3.83;2.00;;;-11.70;99.90;;;;;;5019721;28;20406;-83
2022/12/18 03:38:18;;;;;;;2.63;1.87;;;-11.70;99.90;;;;;;5037915;28;20409;-82
2022/12/18 03:41:02;;;;;;;2.73;2.03;;;-11.70;99.90;;;;;;5020187;28;20209;-82
2022/12/18 03:43:35;;;;;;;3.27;2.00;;;-11.70;99.90;;;;;;5037730;28;20179;-82
2022/12/18 03:46:13;;;;;;;3.23;1.83;;;-11.70;99.90;;;;;;5020374;28;20433;-83
2022/12/18 03:48:44;;;;;;;3.10;2.03;;;-11.60;99.90;;;;;;5042015;28;20421;-83
2022/12/18 03:51:59;;;;;;;1.73;1.63;;;-11.50;99.90;;;;;;5051380;28;20512;-83
2022/12/18 03:54:26;;;;;;;3.83;1.60;;;-11.40;99.90;;;;;;5060347;28;20565;-82
2022/12/18 03:57:01;;;;;;;1.73;1.40;;;-11.50;99.90;;;;;;5059345;28;20416;-82
2022/12/18 03:59:28;;;;;;;3.17;1.77;;;-11.40;99.90;;;;;;5059702;28;20411;-82
2022/12/18 04:01:57;;;;;;;3.00;1.50;;;-11.40;99.90;;;;;;5057765;28;20435;-82
2022/12/18 04:04:25;;;;;;;4.03;2.40;;;-11.50;99.90;;;;;;5058816;28;20419;-82
2022/12/18 04:06:51;;;;;;;1.03;0.97;;;-11.60;99.90;;;;;;5059462;28;20408;-83
2022/12/18 04:09:19;;;;;;;2.83;1.90;;;-11.60;99.90;;;;;;5077289;28;20465;-82
2022/12/18 04:11:45;;;;;;;2.97;2.57;;;-11.70;99.90;;;;;;5076810;28;20482;-82
2022/12/18 04:14:11;;;;;;;3.30;1.70;;;-11.80;99.90;;;;;;5058554;28;20466;-83
2022/12/18 04:16:37;;;;;;;3.23;1.53;;;-11.90;99.90;;;;;;5059103;28;20416;-82
2022/12/18 04:19:03;;;;;;;1.70;1.30;;;-12.00;99.90;;;;;;5059513;28;20173;-83
2022/12/18 04:21:29;;;;;;;1.73;1.57;;;-12.00;99.90;;;;;;5059282;28;20204;-83
2022/12/18 04:23:54;;;;;;;1.83;1.57;;;-11.90;99.90;;;;;;5059005;28;20416;-83
2022/12/18 04:26:20;;;;;;;2.77;1.73;;;-12.00;99.90;;;;;;5077147;28;20222;-82
2022/12/18 04:28:45;;;;;;;2.37;1.80;;;-11.90;99.90;;;;;;5076660;28;20174;-82
2022/12/18 04:31:11;;;;;;;3.60;2.03;;;-11.80;99.90;;;;;;5058956;28;20177;-82
2022/12/18 04:33:37;;;;;;;2.47;1.93;;;-11.70;99.90;;;;;;5058632;28;20205;-83
2022/12/18 04:36:03;;;;;;;1.73;1.30;;;-11.80;99.90;;;;;;5076759;28;20169;-82
2022/12/18 04:38:28;;;;;;;3.20;2.20;;;-11.70;99.90;;;;;;5058869;28;20184;-82
2022/12/18 04:40:54;;;;;;;4.33;2.33;;;-11.80;99.90;;;;;;5058861;28;20184;-83
2022/12/18 04:43:20;;;;;;;3.03;2.10;;;-11.80;99.90;;;;;;5058799;28;20614;-82
2022/12/18 04:45:45;;;;;;;4.40;1.60;;;-11.70;99.90;;;;;;5058698;28;20173;-83
2022/12/18 04:48:11;;;;;;;2.90;1.70;;;-11.80;99.90;;;;;;5059028;28;20231;-82
2022/12/18 04:50:36;;;;;;;2.63;2.03;;;-11.80;99.90;;;;;;5058961;28;20230;-82
2022/12/18 04:53:02;;;;;;;3.20;2.10;;;-11.70;99.90;;;;;;5076034;28;20231;-82
2022/12/18 04:55:28;;;;;;;3.77;2.30;;;-11.80;99.90;;;;;;5076767;28;20177;-82
2022/12/18 04:57:54;;;;;;;5.77;2.80;;;-12.00;99.90;;;;;;5076492;28;20181;-82
2022/12/18 05:00:20;;;;;;;2.20;1.93;;;-12.00;99.90;;;;;;5058442;28;20177;-82
2022/12/18 05:02:46;;;;;;;1.57;1.37;;;-12.10;99.90;;;;;;5075531;28;20197;-82
2022/12/18 05:05:11;;;;;;;3.20;1.77;;;-12.10;99.90;;;;;;5058340;28;20415;-82
2022/12/18 05:07:37;;;;;;;3.03;2.10;;;-12.40;99.90;;;;;;5059138;28;20173;-82
2022/12/18 05:10:03;;;;;;;5.57;2.17;;;-12.60;99.90;;;;;;5058563;28;20276;-82
2022/12/18 05:12:30;;;;;;;4.23;2.00;;;-12.60;99.90;;;;;;5057017;28;20266;-82
2022/12/18 05:14:56;;;;;;;4.33;2.03;;;-12.50;99.90;;;;;;5057841;28;20407;-82
2022/12/18 05:17:21;;;;;;;5.70;2.20;;;-12.50;99.90;;;;;;5075834;28;20924;-82
2022/12/18 05:19:47;;;;;;;3.87;2.10;;;-12.50;99.90;;;;;;5058864;28;20173;-82
2022/12/18 05:22:12;;;;;;;2.07;1.33;;;-12.50;99.90;;;;;;5058394;28;20193;-81
2022/12/18 05:24:38;;;;;;;1.77;1.50;;;-12.50;99.90;;;;;;5057939;28;20270;-82
2022/12/18 05:27:03;;;;;;;3.13;2.17;;;-12.50;99.90;;;;;;5058332;28;20173;-82
2022/12/18 05:29:29;;;;;;;1.60;1.50;;;-12.50;99.90;;;;;;5057745;28;20181;-83
2022/12/18 05:31:55;;;;;;;2.17;1.93;;;-12.40;99.90;;;;;;5076165;28;20300;-82
2022/12/18 05:34:20;;;;;;;3.90;2.03;;;-12.20;99.90;;;;;;5057779;28;20251;-82
2022/12/18 05:36:46;;;;;;;2.40;2.20;;;-12.10;99.90;;;;;;5058342;28;20550;-82
2022/12/18 05:39:12;;;;;;;5.20;2.00;;;-12.10;99.90;;;;;;5058482;28;20232;-82
2022/12/18 05:41:37;;;;;;;2.90;2.23;;;-12.10;99.90;;;;;;5046870;28;20248;-82
2022/12/18 05:44:03;;;;;;;2.13;1.93;;;-12.10;99.90;;;;;;5038015;28;20189;-82
2022/12/18 05:46:29;;;;;;;2.93;1.90;;;-12.20;99.90;;;;;;5038554;28;20522;-82
2022/12/18 05:48:55;;;;;;;1.83;1.60;;;-12.30;99.90;;;;;;5038779;28;20185;-81
2022/12/18 05:51:22;;;;;;;2.50;2.00;;;-12.20;99.90;;;;;;5038309;28;20198;-82
2022/12/18 05:53:48;;;;;;;13.80;4.67;;;-12.30;99.90;;;;;;5055351;28;20463;-82
2022/12/18 05:56:16;;;;;;;6.33;3.03;;;-12.20;99.90;;;;;;5054716;28;20440;-82
2022/12/18 05:58:42;;;;;;;3.23;1.97;;;-12.40;99.90;;;;;;5037401;28;20440;-80
2022/12/18 06:01:15;;;;;;;3.33;2.43;;;-12.30;99.90;;;;;;5054672;28;20435;-82
2022/12/18 06:03:41;;;;;;;3.57;2.20;;;-12.30;99.90;;;;;;5054650;28;20412;-82
2022/12/18 06:06:14;;;;;;;3.03;2.00;;;-12.30;99.90;;;;;;5037319;28;20499;-83
2022/12/18 06:08:39;;;;;;;3.63;2.10;;;-12.30;99.90;;;;;;5035910;28;20174;-85
2022/12/18 06:11:05;;;;;;;3.77;2.10;;;-12.40;99.90;;;;;;5033777;28;20817;-86
2022/12/18 06:13:30;;;;;;;5.30;2.17;;;-12.40;99.90;;;;;;5050900;28;20198;-86
2022/12/18 06:15:56;;;;;;;2.70;2.10;;;-12.40;99.90;;;;;;5034066;28;20177;-85
2022/12/18 06:18:21;;;;;;;4.53;2.10;;;-12.40;99.90;;;;;;5033930;28;20197;-85
2022/12/18 06:20:58;;;;;;;2.07;1.67;;;-12.30;99.90;;;;;;5033760;28;20710;-85
2022/12/18 06:23:23;;;;;;;2.73;1.93;;;-12.30;99.90;;;;;;5050918;28;20193;-86
2022/12/18 06:25:49;;;;;;;2.77;1.80;;;-12.30;99.90;;;;;;5037145;28;20435;-84
2022/12/18 06:28:15;;;;;;;2.83;2.23;;;-12.30;99.90;;;;;;5060130;28;20539;-86
2022/12/18 06:30:44;;;;;;;2.27;1.73;;;-12.30;99.90;;;;;;5059279;28;20174;-85
2022/12/18 06:33:09;;;;;;;3.10;1.60;;;-12.30;99.90;;;;;;5056917;28;20232;-86
2022/12/18 06:35:35;;;;;;;3.63;2.00;;;-12.30;99.90;;;;;;5060579;28;20420;-85
2022/12/18 06:38:02;;;;;;;2.83;1.53;;;-12.40;99.90;;;;;;5061459;28;20165;-85
2022/12/18 06:40:28;;;;;;;3.33;2.07;;;-12.40;99.90;;;;;;5043429;28;20181;-84
2022/12/18 06:42:53;;;;;;;3.03;1.80;;;-12.50;99.90;;;;;;5042140;28;20436;-85
2022/12/18 06:45:19;;;;;;;3.00;1.80;;;-12.50;99.90;;;;;;5060276;28;20181;-86
2022/12/18 06:47:44;;;;;;;3.80;1.77;;;-12.50;99.90;;;;;;5040526;28;20177;-85
2022/12/18 06:50:11;;;;;;;2.70;1.73;;;-12.30;99.90;;;;;;5042822;28;20243;-85
2022/12/18 06:52:37;;;;;;;3.20;1.87;;;-12.40;99.90;;;;;;5058131;28;20288;-88
2022/12/18 06:55:03;;;;;;;3.27;2.03;;;-12.30;99.90;;;;;;5059780;28;20439;-85
2022/12/18 06:57:28;;;;;;;2.93;1.83;;;-12.30;99.90;;;;;;5038838;28;20170;-83
2022/12/18 06:59:54;;;;;;;2.10;1.57;;;-12.20;99.90;;;;;;5055915;28;20406;-85
2022/12/18 07:02:20;;;;;;;2.50;1.80;;;-12.20;99.90;;;;;;5022607;28;20248;-85
2022/12/18 07:04:45;;;;;;;3.57;1.97;;;-12.20;99.90;;;;;;5017263;28;20186;-85
2022/12/18 07:07:11;;;;;;;2.60;1.40;;;-12.20;99.90;;;;;;5017286;28;20217;-85
2022/12/18 07:09:36;;;;;;;1.90;1.20;;;-12.30;99.90;;;;;;5018006;28;20659;-86
2022/12/18 07:12:02;;;;;;;2.43;1.27;;;-12.30;99.90;;;;;;5018758;28;20202;-84
2022/12/18 07:14:27;;;;;;;1.70;1.40;;;-12.30;99.90;;;;;;5034130;28;20289;-86
2022/12/18 07:16:53;;;;;;;2.53;1.80;;;-12.40;99.90;;;;;;5017291;28;20204;-84
2022/12/18 07:19:19;;;;;;;2.43;1.70;;;-12.30;99.90;;;;;;5035495;28;20175;-82
2022/12/18 07:21:44;;;;;;;3.10;2.00;;;-10.10;99.90;;;;;;5035385;28;20323;-84
2022/12/18 07:24:10;;;;;;;3.57;2.20;;;-8.20;99.90;;;;;;5032998;28;20178;-82
2022/12/18 07:26:35;;;;;;;3.57;1.97;;;-7.00;99.90;;;;;;5045993;28;20177;-87
2022/12/18 07:29:01;;;;;;;2.77;1.80;;;-6.60;99.90;;;;;;5047709;28;20207;-87
2022/12/18 07:31:27;;;;;;;2.87;2.30;;;-7.70;99.90;;;;;;5056232;28;20193;-87
2022/12/18 07:33:53;;;;;;;5.00;2.63;;;-8.90;99.90;;;;;;5073529;28;20245;-86
2022/12/18 07:36:18;;;;;;;4.53;2.83;;;-9.90;99.90;;;;;;5051472;28;20167;-87
2022/12/18 07:38:47;;;;;;;4.20;2.70;;;-10.60;99.90;;;;;;5052335;28;20651;-86
2022/12/18 07:41:14;;;;;;;3.50;2.40;;;-11.00;99.90;;;;;;5073817;28;20650;-84
2022/12/18 07:43:40;;;;;;;2.60;1.97;;;-11.10;99.90;;;;;;5055590;28;20470;-87
2022/12/18 07:46:07;;;;;;;3.13;2.27;;;-11.30;99.90;;;;;;5055990;28;20916;-85
2022/12/18 07:48:33;;;;;;;2.77;1.87;;;-11.30;99.90;;;;;;5055791;28;20465;-86
2022/12/18 07:51:04;;;;;;;3.40;1.90;;;-11.50;99.90;;;;;;5050808;28;20428;-85
2022/12/18 07:53:30;;;;;;;5.97;2.10;;;-11.70;99.90;;;;;;5046842;28;20212;-85
2022/12/18 07:56:01;;;;;;;2.40;2.10;;;-11.70;99.90;;;;;;5055674;28;20412;-85
2022/12/18 07:58:26;;;;;;;2.60;1.73;;;-11.80;99.90;;;;;;5073596;28;20701;-85
2022/12/18 08:00:52;;;;;;;3.00;2.17;;;-11.70;99.90;;;;;;5073574;28;20415;-85
2022/12/18 08:03:18;;;;;;;2.90;1.60;;;-11.80;99.90;;;;;;5055075;28;20200;-85
2022/12/18 08:05:44;;;;;;;3.23;1.90;;;-11.90;99.90;;;;;;5055421;28;20182;-86
2022/12/18 08:08:09;;;;;;;3.03;2.00;;;-11.80;99.90;;;;;;5073174;28;20169;-84
2022/12/18 08:10:35;;;;;;;3.17;2.30;;;-11.80;99.90;;;;;;5055773;28;20177;-85
2022/12/18 08:13:01;;;;;;;8.07;5.40;;;-11.70;99.90;;;;;;5054803;28;20209;-84
2022/12/18 08:15:26;;;;;;;7.77;4.43;;;-11.80;99.90;;;;;;5063544;28;20227;-86
2022/12/18 08:17:52;;;;;;;40.23;16.30;;;-11.80;99.90;;;;;;5070367;28;20171;-87
2022/12/18 08:20:18;;;;;;;19.30;9.90;;;-11.80;99.90;;;;;;5055004;28;20193;-85
2022/12/18 08:22:44;;;;;;;16.13;8.30;;;-11.80;99.90;;;;;;5054762;28;20195;-85
2022/12/18 08:25:10;;;;;;;19.77;8.80;;;-11.70;99.90;;;;;;5055477;28;20267;-85
2022/12/18 08:27:36;;;;;;;12.33;6.60;;;-11.60;99.90;;;;;;5073003;28;20443;-87
2022/12/18 08:30:03;;;;;;;10.30;5.13;;;-11.60;99.90;;;;;;5055479;28;20173;-89
2022/12/18 08:32:29;;;;;;;10.83;4.97;;;-11.60;99.90;;;;;;5056618;28;20432;-89
2022/12/18 08:34:54;;;;;;;10.47;5.23;;;-11.50;99.90;;;;;;5047462;28;20408;-88
2022/12/18 08:37:20;;;;;;;8.23;5.00;;;-11.40;99.90;;;;;;5048103;28;20257;-87
2022/12/18 08:39:45;;;;;;;7.50;4.73;;;-11.20;99.90;;;;;;5072874;28;20169;-90
2022/12/18 08:44:55;;;;;;;5.73;3.93;;;-11.10;99.90;;;;;;5069615;28;20548;-86
2022/12/18 08:47:21;;;;;;;8.03;4.93;;;-11.00;99.90;;;;;;5047184;28;20933;-86
2022/12/18 08:49:46;;;;;;;9.43;5.50;;;-11.10;99.90;;;;;;5054867;28;20180;-87
2022/12/18 08:52:12;;;;;;;13.00;6.50;;;-11.00;99.90;;;;;;5054593;28;20267;-87
2022/12/18 08:54:37;;;;;;;13.53;7.13;;;-11.00;99.90;;;;;;5054484;28;20207;-87
2022/12/18 08:57:03;;;;;;;6.90;4.67;;;-11.10;99.90;;;;;;5054555;28;20220;-83
2022/12/18 08:59:29;;;;;;;12.50;7.30;;;-11.30;99.90;;;;;;5054657;28;20173;-87
2022/12/18 09:01:55;;;;;;;10.40;6.13;;;-11.40;99.90;;;;;;5072240;28;20240;-85
2022/12/18 09:04:21;;;;;;;14.50;7.07;;;-11.20;99.90;;;;;;5053943;28;20181;-88
2022/12/18 09:06:46;;;;;;;12.17;7.47;;;-11.00;99.90;;;;;;5072487;28;20427;-88
2022/12/18 09:09:12;;;;;;;9.90;5.27;;;-10.80;99.90;;;;;;5054603;28;20184;-89
2022/12/18 09:11:38;;;;;;;9.73;5.37;;;-10.60;99.90;;;;;;5072370;28;20208;-89
2022/12/18 09:14:04;;;;;;;14.63;6.30;;;-9.80;99.90;;;;;;5072378;28;20451;-88
2022/12/18 09:16:31;;;;;;;8.77;5.47;;;-9.90;99.90;;;;;;5072755;28;20177;-87
2022/12/18 09:19:00;;;;;;;10.13;5.40;;;-10.00;99.90;;;;;;5055094;28;20184;-87
2022/12/18 09:21:29;;;;;;;13.83;5.90;;;-10.00;99.90;;;;;;5054643;28;20438;-89
2022/12/18 09:23:56;;;;;;;12.07;5.70;;;-10.00;99.90;;;;;;5053952;28;20496;-87
2022/12/18 09:26:23;;;;;;;10.93;6.17;;;-9.80;99.90;;;;;;5072390;28;20499;-89
2022/12/18 09:28:50;;;;;;;12.83;7.70;;;-9.70;99.90;;;;;;5041646;28;20451;-90
2022/12/18 09:31:18;;;;;;;12.67;6.83;;;-9.60;99.90;;;;;;5030217;28;20508;-87
2022/12/18 09:33:44;;;;;;;15.23;7.93;;;-9.60;99.90;;;;;;5031168;28;20463;-84
2022/12/18 09:36:12;;;;;;;18.40;8.83;;;-9.40;99.90;;;;;;5032164;28;20431;-83
2022/12/18 09:38:38;;;;;;;16.57;9.60;;;-9.00;99.90;;;;;;5032044;28;20401;-82
2022/12/18 09:41:25;;;;;;;16.40;8.60;;;-8.80;99.90;;;;;;5014347;28;20423;-82
2022/12/18 09:43:56;;;;;;;22.47;12.80;;;-8.40;99.90;;;;;;5039987;28;20241;-82
2022/12/18 09:46:39;;;;;;;20.20;10.60;;;-8.20;99.90;;;;;;5063623;28;20419;-82
2022/12/18 09:49:12;;;;;;;24.73;10.47;;;-8.00;99.90;;;;;;5054130;28;20869;-81
2022/12/18 09:51:49;;;;;;;31.03;13.87;;;-7.90;99.90;;;;;;5053734;28;20516;-82
2022/12/18 09:54:38;;;;;;;28.73;14.37;;;-7.60;99.90;;;;;;5053298;28;20460;-82
2022/12/18 09:57:04;;;;;;;37.57;18.23;;;-7.40;99.90;;;;;;5053907;28;20413;-81
2022/12/18 09:59:36;;;;;;;39.23;18.87;;;-6.90;99.90;;;;;;5054363;28;20417;-82
2022/12/18 10:02:15;;;;;;;12.30;7.60;;;-6.90;99.90;;;;;;5057894;28;20435;-82
2022/12/18 10:04:41;;;;;;;22.70;12.10;;;-6.80;99.90;;;;;;5057459;28;20962;-82
2022/12/18 10:07:18;;;;;;;9.80;5.93;;;-6.60;99.90;;;;;;5043206;28;20519;-82
2022/12/18 10:10:02;;;;;;;21.30;10.90;;;-6.40;99.90;;;;;;5059438;28;20243;-81
2022/12/18 10:12:41;;;;;;;14.83;8.60;;;-6.30;99.90;;;;;;5037025;28;20458;-83
2022/12/18 10:15:31;;;;;;;28.03;13.97;;;-6.10;99.90;;;;;;5055516;28;20462;-82
2022/12/18 10:18:18;;;;;;;21.00;11.90;;;-6.20;99.90;;;;;;5055670;28;20404;-82
2022/12/18 10:20:45;;;;;;;29.50;14.80;;;-6.10;99.90;;;;;;5055407;28;20420;-81
2022/12/18 10:23:16;;;;;;;19.07;12.00;;;-5.90;99.90;;;;;;5054602;28;20774;-82
2022/12/18 10:25:55;;;;;;;20.83;11.50;;;-6.10;99.90;;;;;;5037667;28;20420;-82
2022/12/18 10:28:22;;;;;;;20.57;11.40;;;-6.20;99.90;;;;;;5068376;28;20430;-81
2022/12/18 10:30:47;;;;;;;25.43;14.30;;;-6.20;99.90;;;;;;5075302;28;20415;-84
2022/12/18 10:33:22;;;;;;;20.67;11.57;;;-6.00;99.90;;;;;;5074414;28;20450;-81
2022/12/18 10:35:52;;;;;;;21.70;13.50;;;-6.10;99.90;;;;;;5057160;28;20233;-83
2022/12/18 10:38:18;;;;;;;18.47;10.53;;;-3.60;99.90;;;;;;5057440;28;20419;-83
2022/12/18 10:40:51;;;;;;;15.03;10.63;;;-4.20;99.90;;;;;;5074946;28;20404;-83
2022/12/18 10:43:30;;;;;;;18.30;10.63;;;-4.70;99.90;;;;;;5056869;28;20455;-88
2022/12/18 10:46:02;;;;;;;17.20;10.80;;;-5.00;99.90;;;;;;5064542;28;20420;-89
2022/12/18 10:48:29;;;;;;;18.07;10.83;;;-5.10;99.90;;;;;;5048666;28;20411;-89
2022/12/18 10:50:56;;;;;;;18.43;10.67;;;-5.10;99.90;;;;;;5058275;28;20795;-86
2022/12/18 10:53:25;;;;;;;17.00;9.90;;;-5.10;99.90;;;;;;5075628;28;20550;-83
2022/12/18 10:55:53;;;;;;;16.27;10.07;;;-4.90;99.90;;;;;;5058847;28;20485;-87
2022/12/18 10:58:31;;;;;;;16.23;10.80;;;-4.50;99.90;;;;;;5077522;28;20804;-84
2022/12/18 11:01:13;;;;;;;16.03;9.97;;;-4.30;99.90;;;;;;5060810;28;20423;-84
2022/12/18 11:04:00;;;;;;;19.13;12.33;;;-4.20;99.90;;;;;;5061034;28;20500;-84
2022/12/18 11:06:26;;;;;;;17.30;10.80;;;-4.10;99.90;;;;;;5062179;28;20423;-84
2022/12/18 11:09:18;;;;;;;13.63;9.00;;;-3.90;99.90;;;;;;5079041;28;20412;-84
2022/12/18 11:11:51;;;;;;;15.33;9.20;;;-3.60;99.90;;;;;;5077514;28;20208;-84
2022/12/18 11:14:30;;;;;;;19.90;10.63;;;-3.60;99.90;;;;;;5075841;28;20461;-84
2022/12/18 11:16:58;;;;;;;13.87;8.53;;;-3.40;99.90;;;;;;5076907;28;20409;-85
2022/12/18 11:19:37;;;;;;;14.97;9.67;;;-3.30;99.90;;;;;;5068851;28;20422;-85
2022/12/18 11:22:27;;;;;;;18.00;10.40;;;-3.40;99.90;;;;;;5050365;28;20895;-84
2022/12/18 11:25:10;;;;;;;17.53;10.73;;;-3.50;99.90;;;;;;5044520;28;20433;-84
2022/12/18 11:27:37;;;;;;;14.80;9.43;;;-3.50;99.90;;;;;;5058866;28;20419;-84
2022/12/18 11:30:20;;;;;;;17.83;10.77;;;-3.60;99.90;;;;;;5040914;28;20762;-84
2022/12/18 11:32:48;;;;;;;16.83;9.93;;;-3.80;99.90;;;;;;5059243;28;20484;-84
2022/12/18 11:35:22;;;;;;;17.77;10.23;;;-3.90;99.90;;;;;;5059890;28;20417;-84
2022/12/18 11:37:57;;;;;;;16.07;10.33;;;-3.90;99.90;;;;;;5041750;28;20442;-84
2022/12/18 11:40:38;;;;;;;15.13;10.20;;;-3.70;99.90;;;;;;5057926;28;20430;-84
2022/12/18 11:43:10;;;;;;;14.03;9.43;;;-3.60;99.90;;;;;;5038964;28;20435;-85
2022/12/18 11:45:43;;;;;;;15.57;9.73;;;-3.60;99.90;;;;;;5058873;28;20416;-84
2022/12/18 11:48:22;;;;;;;16.33;10.93;;;-3.50;99.90;;;;;;5037846;28;20415;-84
2022/12/18 11:50:53;;;;;;;18.17;9.87;;;-3.50;99.90;;;;;;5056292;28;20409;-84
2022/12/18 11:53:19;;;;;;;15.27;8.73;;;-3.40;99.90;;;;;;5036134;28;20468;-84
2022/12/18 11:56:07;;;;;;;13.83;7.97;;;-3.30;99.90;;;;;;5054711;28;20414;-83
2022/12/18 11:58:43;;;;;;;15.13;9.30;;;-3.40;99.90;;;;;;5054582;28;20418;-83
2022/12/18 12:01:20;;;;;;;15.07;9.80;;;-3.70;99.90;;;;;;5036465;28;20408;-85
2022/12/18 12:03:55;;;;;;;12.83;8.33;;;-3.80;99.90;;;;;;5035304;28;20411;-87
2022/12/18 12:06:47;;;;;;;15.30;9.23;;;-3.80;99.90;;;;;;5035998;28;20641;-84
2022/12/18 12:09:41;;;;;;;14.77;9.23;;;-3.80;99.90;;;;;;4991183;28;20417;-83
2022/12/18 12:12:45;;;;;;;12.83;8.43;;;-3.10;99.90;;;;;;5040749;28;20215;-81
2022/12/18 12:15:48;;;;;;;14.37;8.20;;;-3.10;99.90;;;;;;5039556;28;20173;-88
2022/12/18 12:18:33;;;;;;;13.87;8.67;;;-3.20;99.90;;;;;;5038652;28;20431;-85
2022/12/18 12:21:20;;;;;;;18.47;10.97;;;-3.40;99.90;;;;;;5038774;28;20428;-86
2022/12/18 12:24:15;;;;;;;19.67;12.67;;;-3.60;99.90;;;;;;5036611;28;20503;-84
2022/12/18 12:26:55;;;;;;;23.20;13.27;;;-3.90;99.90;;;;;;5055445;28;20442;-86
2022/12/18 12:29:24;;;;;;;21.37;13.40;;;-3.80;99.90;;;;;;5055346;28;20407;-85
2022/12/18 12:32:27;;;;;;;21.00;11.63;;;-3.80;99.90;;;;;;5037734;28;20434;-86
2022/12/18 12:35:20;;;;;;;19.90;12.20;;;-3.80;99.90;;;;;;4998104;28;20427;-86
2022/12/18 12:37:51;;;;;;;17.80;10.97;;;-3.70;99.90;;;;;;5037417;28;20780;-86
2022/12/18 12:40:19;;;;;;;19.60;10.83;;;-3.60;99.90;;;;;;5056545;28;20424;-86
2022/12/18 12:45:51;;;;;;;27.47;15.53;;;-3.90;99.90;;;;;;5055890;28;20395;-86
2022/12/18 12:48:31;;;;;;;26.50;14.93;;;-4.10;99.90;;;;;;5036086;28;20434;-86
2022/12/18 12:51:00;;;;;;;22.97;13.87;;;-4.40;99.90;;;;;;5053569;28;20398;-86
2022/12/18 12:53:32;;;;;;;28.40;15.43;;;-4.60;99.90;;;;;;5034991;28;20473;-86
2022/12/18 12:55:59;;;;;;;20.77;12.77;;;-4.60;99.90;;;;;;5035357;28;20410;-86
2022/12/18 12:58:46;;;;;;;21.73;13.47;;;-4.60;99.90;;;;;;5053893;28;20410;-85